sensor_id;sensor_type;location;lat;lon;timestamp;pressure;altitude;pressure_sealevel;temperature;humidity
62617;BME280;62539;51.190;6.808;2023-03-11T00:00:58;100282.59;;;17.76;53.71
62617;BME280;62539;51.190;6.808;2023-03-11T00:03:24;100284.50;;;17.73;54.00
62617;BME280;62539;51.190;6.808;2023-03-11T00:05:52;100289.88;;;17.70;53.90
62617;BME280;62539;51.190;6.808;2023-03-11T00:08:22;100297.78;;;17.68;53.97
62617;BME280;62539;51.190;6.808;2023-03-11T00:10:54;100301.44;;;17.64;53.86
62617;BME280;62539;51.190;6.808;2023-03-11T00:13:23;100297.97;;;17.63;54.09
62617;BME280;62539;51.190;6.808;2023-03-11T00:15:50;100299.81;;;17.61;54.10
62617;BME280;62539;51.190;6.808;2023-03-11T00:18:20;100292.91;;;17.59;54.04
62617;BME280;62539;51.190;6.808;2023-03-11T00:20:49;100292.19;;;17.55;54.08
62617;BME280;62539;51.190;6.808;2023-03-11T00:23:15;100303.56;;;17.54;54.05
62617;BME280;62539;51.190;6.808;2023-03-11T00:25:42;100294.91;;;17.52;54.08
62617;BME280;62539;51.190;6.808;2023-03-11T00:28:09;100309.84;;;17.50;54.11
62617;BME280;62539;51.190;6.808;2023-03-11T00:30:36;100316.91;;;17.48;54.17
62617;BME280;62539;51.190;6.808;2023-03-11T00:33:02;100317.88;;;17.45;54.18
62617;BME280;62539;51.190;6.808;2023-03-11T00:35:30;100321.47;;;17.43;54.21
62617;BME280;62539;51.190;6.808;2023-03-11T00:38:01;100328.59;;;17.39;54.36
62617;BME280;62539;51.190;6.808;2023-03-11T00:40:30;100330.41;;;17.37;54.53
62617;BME280;62539;51.190;6.808;2023-03-11T00:42:57;100332.19;;;17.37;54.30
62617;BME280;62539;51.190;6.808;2023-03-11T00:45:24;100331.41;;;17.34;54.36
62617;BME280;62539;51.190;6.808;2023-03-11T00:47:51;100331.44;;;17.33;54.45
62617;BME280;62539;51.190;6.808;2023-03-11T00:50:23;100337.59;;;17.32;54.51
62617;BME280;62539;51.190;6.808;2023-03-11T00:52:52;100338.50;;;17.31;54.50
62617;BME280;62539;51.190;6.808;2023-03-11T00:55:23;100348.19;;;17.29;54.33
62617;BME280;62539;51.190;6.808;2023-03-11T00:57:55;100349.16;;;17.26;54.63
62617;BME280;62539;51.190;6.808;2023-03-11T01:00:23;100348.28;;;17.26;54.49
62617;BME280;62539;51.190;6.808;2023-03-11T01:02:51;100350.13;;;17.24;54.59
62617;BME280;62539;51.190;6.808;2023-03-11T01:05:20;100347.56;;;17.22;54.64
62617;BME280;62539;51.190;6.808;2023-03-11T01:07:47;100352.00;;;17.20;54.67
62617;BME280;62539;51.190;6.808;2023-03-11T01:10:13;100352.94;;;17.17;54.80
62617;BME280;62539;51.190;6.808;2023-03-11T01:12:40;100355.56;;;17.17;54.79
62617;BME280;62539;51.190;6.808;2023-03-11T01:15:07;100352.13;;;17.17;54.98
62617;BME280;62539;51.190;6.808;2023-03-11T01:17:33;100356.47;;;17.16;55.04
62617;BME280;62539;51.190;6.808;2023-03-11T01:19:59;100356.38;;;17.19;54.96
62617;BME280;62539;51.190;6.808;2023-03-11T01:22:24;100357.03;;;17.26;54.74
62617;BME280;62539;51.190;6.808;2023-03-11T01:24:50;100361.94;;;17.36;54.78
62617;BME280;62539;51.190;6.808;2023-03-11T01:27:15;100361.63;;;17.45;54.71
62617;BME280;62539;51.190;6.808;2023-03-11T01:29:41;100363.91;;;17.54;54.44
62617;BME280;62539;51.190;6.808;2023-03-11T01:32:06;100368.81;;;17.63;54.35
62617;BME280;62539;51.190;6.808;2023-03-11T01:34:32;100367.56;;;17.74;53.88
62617;BME280;62539;51.190;6.808;2023-03-11T01:37:01;100370.66;;;17.84;53.77
62617;BME280;62539;51.190;6.808;2023-03-11T01:39:27;100370.41;;;17.91;53.42
62617;BME280;62539;51.190;6.808;2023-03-11T01:41:53;100377.16;;;17.97;53.37
62617;BME280;62539;51.190;6.808;2023-03-11T01:44:20;100377.94;;;18.01;53.09
62617;BME280;62539;51.190;6.808;2023-03-11T01:49:18;100381.28;;;18.04;52.56
62617;BME280;62539;51.190;6.808;2023-03-11T01:51:48;100386.50;;;18.06;52.51
62617;BME280;62539;51.190;6.808;2023-03-11T01:54:20;100384.78;;;18.05;52.56
62617;BME280;62539;51.190;6.808;2023-03-11T01:56:49;100384.78;;;18.05;52.42
62617;BME280;62539;51.190;6.808;2023-03-11T01:59:20;100398.81;;;18.04;52.50
62617;BME280;62539;51.190;6.808;2023-03-11T02:04:26;100398.94;;;18.01;52.58
62617;BME280;62539;51.190;6.808;2023-03-11T02:06:55;100391.88;;;18.03;52.67
62617;BME280;62539;51.190;6.808;2023-03-11T02:09:21;100401.38;;;18.05;52.72
62617;BME280;62539;51.190;6.808;2023-03-11T02:11:48;100392.47;;;18.10;52.64
62617;BME280;62539;51.190;6.808;2023-03-11T02:14:15;100397.47;;;18.16;52.48
62617;BME280;62539;51.190;6.808;2023-03-11T02:16:41;100398.13;;;18.23;52.35
62617;BME280;62539;51.190;6.808;2023-03-11T02:22:23;100399.59;;;18.30;51.93
62617;BME280;62539;51.190;6.808;2023-03-11T02:27:52;100396.88;;;18.31;51.76
62617;BME280;62539;51.190;6.808;2023-03-11T02:30:21;100390.84;;;18.29;51.75
62617;BME280;62539;51.190;6.808;2023-03-11T02:32:48;100391.75;;;18.28;51.73
62617;BME280;62539;51.190;6.808;2023-03-11T02:35:15;100391.88;;;18.25;51.55
62617;BME280;62539;51.190;6.808;2023-03-11T02:37:47;100406.00;;;18.23;51.63
62617;BME280;62539;51.190;6.808;2023-03-11T02:42:57;100400.97;;;18.16;51.81
62617;BME280;62539;51.190;6.808;2023-03-11T02:45:25;100402.81;;;18.14;51.88
62617;BME280;62539;51.190;6.808;2023-03-11T02:47:54;100407.16;;;18.15;51.89
62617;BME280;62539;51.190;6.808;2023-03-11T02:50:21;100403.53;;;18.18;52.04
62617;BME280;62539;51.190;6.808;2023-03-11T02:52:50;100411.25;;;18.23;51.85
62617;BME280;62539;51.190;6.808;2023-03-11T02:55:16;100412.84;;;18.27;51.51
62617;BME280;62539;51.190;6.808;2023-03-11T02:57:45;100405.69;;;18.30;51.90
62617;BME280;62539;51.190;6.808;2023-03-11T03:00:13;100417.78;;;18.34;51.70
62617;BME280;62539;51.190;6.808;2023-03-11T03:02:41;100415.09;;;18.36;51.55
62617;BME280;62539;51.190;6.808;2023-03-11T03:05:09;100416.75;;;18.39;51.46
62617;BME280;62539;51.190;6.808;2023-03-11T03:07:36;100418.53;;;18.38;51.29
62617;BME280;62539;51.190;6.808;2023-03-11T03:10:02;100417.72;;;18.36;51.27
62617;BME280;62539;51.190;6.808;2023-03-11T03:12:29;100419.56;;;18.34;51.08
62617;BME280;62539;51.190;6.808;2023-03-11T03:14:55;100417.06;;;18.31;51.22
62617;BME280;62539;51.190;6.808;2023-03-11T03:17:22;100420.72;;;18.27;51.14
62617;BME280;62539;51.190;6.808;2023-03-11T03:19:48;100429.63;;;18.23;51.45
62617;BME280;62539;51.190;6.808;2023-03-11T03:22:14;100425.41;;;18.18;51.37
62617;BME280;62539;51.190;6.808;2023-03-11T03:24:39;100424.66;;;18.15;51.28
62617;BME280;62539;51.190;6.808;2023-03-11T03:27:05;100428.25;;;18.12;51.47
62617;BME280;62539;51.190;6.808;2023-03-11T03:29:30;100428.25;;;18.12;51.64
62617;BME280;62539;51.190;6.808;2023-03-11T03:31:56;100431.69;;;18.14;51.82
62617;BME280;62539;51.190;6.808;2023-03-11T03:34:21;100433.28;;;18.18;51.80
62617;BME280;62539;51.190;6.808;2023-03-11T03:36:46;100431.38;;;18.22;51.58
62617;BME280;62539;51.190;6.808;2023-03-11T03:39:12;100429.50;;;18.26;51.51
62617;BME280;62539;51.190;6.808;2023-03-11T03:41:37;100434.63;;;18.29;51.48
62617;BME280;62539;51.190;6.808;2023-03-11T03:44:03;100445.94;;;18.31;51.31
62617;BME280;62539;51.190;6.808;2023-03-11T03:46:28;100447.66;;;18.32;51.34
62617;BME280;62539;51.190;6.808;2023-03-11T03:48:54;100449.41;;;18.31;51.31
62617;BME280;62539;51.190;6.808;2023-03-11T03:51:19;100452.94;;;18.30;51.08
62617;BME280;62539;51.190;6.808;2023-03-11T03:53:44;100454.78;;;18.28;51.10
62617;BME280;62539;51.190;6.808;2023-03-11T03:56:15;100464.56;;;18.25;51.10
62617;BME280;62539;51.190;6.808;2023-03-11T03:58:41;100457.72;;;18.20;51.09
62617;BME280;62539;51.190;6.808;2023-03-11T04:01:07;100466.63;;;18.16;51.11
62617;BME280;62539;51.190;6.808;2023-03-11T04:03:35;100471.09;;;18.13;51.10
62617;BME280;62539;51.190;6.808;2023-03-11T04:06:08;100473.91;;;18.08;51.13
62617;BME280;62539;51.190;6.808;2023-03-11T04:08:39;100480.91;;;18.07;51.38
62617;BME280;62539;51.190;6.808;2023-03-11T04:11:04;100476.53;;;18.08;51.50
62617;BME280;62539;51.190;6.808;2023-03-11T04:13:30;100483.44;;;18.11;51.69
62617;BME280;62539;51.190;6.808;2023-03-11T04:15:55;100487.66;;;18.15;51.52
62617;BME280;62539;51.190;6.808;2023-03-11T04:18:21;100491.03;;;18.18;51.56
62617;BME280;62539;51.190;6.808;2023-03-11T04:20:47;100494.34;;;18.24;51.28
62617;BME280;62539;51.190;6.808;2023-03-11T04:23:12;100499.50;;;18.27;51.22
62617;BME280;62539;51.190;6.808;2023-03-11T04:25:38;100497.66;;;18.29;51.10
62617;BME280;62539;51.190;6.808;2023-03-11T04:28:03;100496.75;;;18.30;51.23
62617;BME280;62539;51.190;6.808;2023-03-11T04:30:29;100498.50;;;18.29;50.78
62617;BME280;62539;51.190;6.808;2023-03-11T04:32:54;100502.91;;;18.29;50.96
62617;BME280;62539;51.190;6.808;2023-03-11T04:35:19;100504.75;;;18.27;50.96
62617;BME280;62539;51.190;6.808;2023-03-11T04:37:45;100504.84;;;18.24;50.88
62617;BME280;62539;51.190;6.808;2023-03-11T04:40:10;100509.34;;;18.20;51.05
62617;BME280;62539;51.190;6.808;2023-03-11T04:42:36;100506.00;;;18.16;50.94
62617;BME280;62539;51.190;6.808;2023-03-11T04:45:03;100513.09;;;18.13;51.05
62617;BME280;62539;51.190;6.808;2023-03-11T04:47:30;100514.09;;;18.10;51.19
62617;BME280;62539;51.190;6.808;2023-03-11T04:49:55;100515.91;;;18.08;51.21
62617;BME280;62539;51.190;6.808;2023-03-11T04:52:21;100517.56;;;18.11;51.27
62617;BME280;62539;51.190;6.808;2023-03-11T04:54:47;100527.16;;;18.12;51.26
62617;BME280;62539;51.190;6.808;2023-03-11T04:57:12;100530.47;;;18.17;51.24
62617;BME280;62539;51.190;6.808;2023-03-11T04:59:38;100527.69;;;18.21;51.14
62617;BME280;62539;51.190;6.808;2023-03-11T05:02:03;100533.63;;;18.27;51.03
62617;BME280;62539;51.190;6.808;2023-03-11T05:04:29;100532.59;;;18.31;50.91
62617;BME280;62539;51.190;6.808;2023-03-11T05:06:55;100528.97;;;18.33;50.62
62617;BME280;62539;51.190;6.808;2023-03-11T05:09:20;100532.38;;;18.37;50.73
62617;BME280;62539;51.190;6.808;2023-03-11T05:11:45;100532.25;;;18.40;50.81
62617;BME280;62539;51.190;6.808;2023-03-11T05:14:11;100539.78;;;18.49;50.60
62617;BME280;62539;51.190;6.808;2023-03-11T05:16:36;100534.09;;;18.60;50.53
62617;BME280;62539;51.190;6.808;2023-03-11T05:19:02;100534.53;;;18.72;50.15
62617;BME280;62539;51.190;6.808;2023-03-11T05:21:47;100546.34;;;18.84;49.90
62617;BME280;62539;51.190;6.808;2023-03-11T05:24:12;100548.59;;;18.93;49.61
62617;BME280;62539;51.190;6.808;2023-03-11T05:26:38;100542.09;;;19.03;49.56
62617;BME280;62539;51.190;6.808;2023-03-11T05:29:03;100544.41;;;19.11;49.30
62617;BME280;62539;51.190;6.808;2023-03-11T05:31:29;100548.44;;;19.20;49.09
62617;BME280;62539;51.190;6.808;2023-03-11T05:33:54;100546.34;;;19.28;49.01
62617;BME280;62539;51.190;6.808;2023-03-11T05:36:19;100561.88;;;19.34;48.67
62617;BME280;62539;51.190;6.808;2023-03-11T05:38:45;100547.56;;;19.42;48.76
62617;BME280;62539;51.190;6.808;2023-03-11T05:41:10;100558.69;;;19.48;48.58
62617;BME280;62539;51.190;6.808;2023-03-11T05:43:35;100555.72;;;19.56;48.24
62617;BME280;62539;51.190;6.808;2023-03-11T05:46:01;100556.34;;;19.63;48.59
62617;BME280;62539;51.190;6.808;2023-03-11T05:48:26;100553.50;;;19.67;48.29
62617;BME280;62539;51.190;6.808;2023-03-11T05:50:52;100557.66;;;19.73;48.16
62617;BME280;62539;51.190;6.808;2023-03-11T05:53:17;100548.69;;;19.77;48.19
62617;BME280;62539;51.190;6.808;2023-03-11T05:55:42;100561.66;;;19.82;47.75
62617;BME280;62539;51.190;6.808;2023-03-11T05:58:08;100560.69;;;19.85;47.89
62617;BME280;62539;51.190;6.808;2023-03-11T06:00:33;100564.94;;;19.87;47.83
62617;BME280;62539;51.190;6.808;2023-03-11T06:02:59;100552.69;;;19.86;47.67
62617;BME280;62539;51.190;6.808;2023-03-11T06:05:24;100572.03;;;19.85;47.72
62617;BME280;62539;51.190;6.808;2023-03-11T06:07:49;100580.03;;;19.83;47.66
62617;BME280;62539;51.190;6.808;2023-03-11T06:10:15;100578.44;;;19.79;47.79
62617;BME280;62539;51.190;6.808;2023-03-11T06:12:41;100578.63;;;19.75;47.72
62617;BME280;62539;51.190;6.808;2023-03-11T06:15:06;100583.22;;;19.69;47.75
62617;BME280;62539;51.190;6.808;2023-03-11T06:17:32;100588.75;;;19.63;47.87
62617;BME280;62539;51.190;6.808;2023-03-11T06:19:57;100589.00;;;19.57;47.95
62617;BME280;62539;51.190;6.808;2023-03-11T06:22:23;100593.69;;;19.50;48.02
62617;BME280;62539;51.190;6.808;2023-03-11T06:24:48;100587.81;;;19.44;48.02
62617;BME280;62539;51.190;6.808;2023-03-11T06:27:14;100595.03;;;19.38;48.16
62617;BME280;62539;51.190;6.808;2023-03-11T06:29:39;100595.28;;;19.32;48.33
62617;BME280;62539;51.190;6.808;2023-03-11T06:32:05;100603.41;;;19.26;48.26
62617;BME280;62539;51.190;6.808;2023-03-11T06:34:31;100605.38;;;19.21;48.62
62617;BME280;62539;51.190;6.808;2023-03-11T06:36:56;100614.38;;;19.15;48.61
62617;BME280;62539;51.190;6.808;2023-03-11T06:39:23;100608.38;;;19.12;48.93
62617;BME280;62539;51.190;6.808;2023-03-11T06:41:48;100610.19;;;19.09;49.05
62617;BME280;62539;51.190;6.808;2023-03-11T06:44:14;100615.47;;;19.09;49.24
62617;BME280;62539;51.190;6.808;2023-03-11T06:46:39;100622.31;;;19.14;49.29
62617;BME280;62539;51.190;6.808;2023-03-11T06:49:05;100617.81;;;19.17;49.32
62617;BME280;62539;51.190;6.808;2023-03-11T06:51:30;100630.75;;;19.22;49.29
62617;BME280;62539;51.190;6.808;2023-03-11T06:53:56;100626.16;;;19.27;49.15
62617;BME280;62539;51.190;6.808;2023-03-11T06:56:22;100626.84;;;19.32;49.44
62617;BME280;62539;51.190;6.808;2023-03-11T06:58:48;100640.66;;;19.37;49.18
62617;BME280;62539;51.190;6.808;2023-03-11T07:01:16;100644.88;;;19.42;48.94
62617;BME280;62539;51.190;6.808;2023-03-11T07:03:52;100651.69;;;19.47;48.96
62617;BME280;62539;51.190;6.808;2023-03-11T07:06:23;100661.09;;;19.53;48.63
62617;BME280;62539;51.190;6.808;2023-03-11T07:08:51;100674.88;;;19.60;48.72
62617;BME280;62539;51.190;6.808;2023-03-11T07:11:21;100682.53;;;19.66;48.67
62617;BME280;62539;51.190;6.808;2023-03-11T07:13:47;100678.84;;;19.70;48.65
62617;BME280;62539;51.190;6.808;2023-03-11T07:16:16;100681.34;;;19.73;48.47
62617;BME280;62539;51.190;6.808;2023-03-11T07:18:47;100688.25;;;19.76;48.35
62617;BME280;62539;51.190;6.808;2023-03-11T07:21:16;100688.13;;;19.79;48.25
62617;BME280;62539;51.190;6.808;2023-03-11T07:23:44;100692.47;;;19.80;48.10
62617;BME280;62539;51.190;6.808;2023-03-11T07:26:12;100689.00;;;19.79;48.11
62617;BME280;62539;51.190;6.808;2023-03-11T07:28:39;100696.09;;;19.77;48.25
62617;BME280;62539;51.190;6.808;2023-03-11T07:31:11;100698.78;;;19.76;48.18
62617;BME280;62539;51.190;6.808;2023-03-11T07:33:38;100702.34;;;19.75;48.18
62617;BME280;62539;51.190;6.808;2023-03-11T07:36:08;100709.56;;;19.69;48.29
62617;BME280;62539;51.190;6.808;2023-03-11T07:38:35;100712.38;;;19.65;48.32
62617;BME280;62539;51.190;6.808;2023-03-11T07:41:01;100720.44;;;19.60;48.46
62617;BME280;62539;51.190;6.808;2023-03-11T07:43:26;100719.78;;;19.55;48.57
62617;BME280;62539;51.190;6.808;2023-03-11T07:46:01;100716.53;;;19.48;48.72
62617;BME280;62539;51.190;6.808;2023-03-11T07:48:27;100721.06;;;19.45;48.96
62617;BME280;62539;51.190;6.808;2023-03-11T07:51:05;100724.69;;;19.42;49.36
62617;BME280;62539;51.190;6.808;2023-03-11T07:53:33;100729.06;;;19.42;49.40
62617;BME280;62539;51.190;6.808;2023-03-11T07:55:59;100735.25;;;19.41;49.38
62617;BME280;62539;51.190;6.808;2023-03-11T07:58:25;100731.81;;;19.38;49.55
62617;BME280;62539;51.190;6.808;2023-03-11T08:00:51;100741.38;;;19.41;49.55
62617;BME280;62539;51.190;6.808;2023-03-11T08:03:18;100742.19;;;19.43;49.58
62617;BME280;62539;51.190;6.808;2023-03-11T08:05:44;100746.41;;;19.47;49.66
62617;BME280;62539;51.190;6.808;2023-03-11T08:08:09;100741.88;;;19.51;49.75
62617;BME280;62539;51.190;6.808;2023-03-11T08:10:36;100745.13;;;19.58;49.86
62617;BME280;62539;51.190;6.808;2023-03-11T08:13:02;100746.66;;;19.63;49.85
62617;BME280;62539;51.190;6.808;2023-03-11T08:15:27;100744.56;;;19.72;49.63
62617;BME280;62539;51.190;6.808;2023-03-11T08:17:53;100747.88;;;19.77;49.28
62617;BME280;62539;51.190;6.808;2023-03-11T08:20:18;100750.25;;;19.83;49.35
62617;BME280;62539;51.190;6.808;2023-03-11T08:22:44;100752.75;;;19.86;49.30
62617;BME280;62539;51.190;6.808;2023-03-11T08:25:09;100756.19;;;19.88;49.42
62617;BME280;62539;51.190;6.808;2023-03-11T08:27:35;100752.53;;;19.92;49.27
62617;BME280;62539;51.190;6.808;2023-03-11T08:30:00;100762.00;;;19.98;49.23
62617;BME280;62539;51.190;6.808;2023-03-11T08:32:26;100763.56;;;20.02;49.05
62617;BME280;62539;51.190;6.808;2023-03-11T08:34:55;100758.19;;;20.05;49.29
62617;BME280;62539;51.190;6.808;2023-03-11T08:37:20;100764.16;;;20.09;49.14
62617;BME280;62539;51.190;6.808;2023-03-11T08:39:45;100763.91;;;20.15;49.33
62617;BME280;62539;51.190;6.808;2023-03-11T08:42:11;100767.22;;;20.20;49.22
62617;BME280;62539;51.190;6.808;2023-03-11T08:44:36;100772.22;;;20.26;49.09
62617;BME280;62539;51.190;6.808;2023-03-11T08:47:02;100766.00;;;20.29;46.49
62617;BME280;62539;51.190;6.808;2023-03-11T08:49:27;100766.25;;;20.23;42.73
62617;BME280;62539;51.190;6.808;2023-03-11T08:51:53;100759.31;;;20.20;41.60
62617;BME280;62539;51.190;6.808;2023-03-11T08:54:18;100761.22;;;20.17;39.34
62617;BME280;62539;51.190;6.808;2023-03-11T08:56:44;100761.50;;;20.10;37.08
62617;BME280;62539;51.190;6.808;2023-03-11T08:59:11;100773.00;;;20.08;36.29
62617;BME280;62539;51.190;6.808;2023-03-11T09:01:37;100774.69;;;20.09;35.56
62617;BME280;62539;51.190;6.808;2023-03-11T09:04:03;100772.63;;;20.17;34.64
62617;BME280;62539;51.190;6.808;2023-03-11T09:06:28;100771.25;;;20.29;34.10
62617;BME280;62539;51.190;6.808;2023-03-11T09:08:54;100780.16;;;20.47;33.88
62617;BME280;62539;51.190;6.808;2023-03-11T09:11:20;100775.41;;;20.76;34.14
62617;BME280;62539;51.190;6.808;2023-03-11T09:13:47;100772.34;;;21.06;34.47
62617;BME280;62539;51.190;6.808;2023-03-11T09:16:14;100772.72;;;21.37;34.56
62617;BME280;62539;51.190;6.808;2023-03-11T09:18:41;100763.66;;;21.62;34.72
62617;BME280;62539;51.190;6.808;2023-03-11T09:21:07;100763.56;;;21.82;35.17
62617;BME280;62539;51.190;6.808;2023-03-11T09:23:33;100768.19;;;21.96;35.24
62617;BME280;62539;51.190;6.808;2023-03-11T09:25:58;100761.75;;;22.02;35.34
62617;BME280;62539;51.190;6.808;2023-03-11T09:28:24;100770.72;;;22.17;35.72
62617;BME280;62539;51.190;6.808;2023-03-11T09:30:49;100769.78;;;22.36;35.70
62617;BME280;62539;51.190;6.808;2023-03-11T09:33:15;100776.09;;;22.51;35.65
62617;BME280;62539;51.190;6.808;2023-03-11T09:35:40;100772.34;;;22.72;35.47
62617;BME280;62539;51.190;6.808;2023-03-11T09:38:06;100771.00;;;22.81;35.80
62617;BME280;62539;51.190;6.808;2023-03-11T09:40:48;100779.69;;;23.01;35.21
62617;BME280;62539;51.190;6.808;2023-03-11T09:43:30;100780.28;;;23.06;35.43
62617;BME280;62539;51.190;6.808;2023-03-11T09:46:33;100784.75;;;23.22;34.87
62617;BME280;62539;51.190;6.808;2023-03-11T09:52:11;100783.63;;;23.43;35.26
62617;BME280;62539;51.190;6.808;2023-03-11T09:54:42;100785.00;;;23.51;35.14
62617;BME280;62539;51.190;6.808;2023-03-11T09:57:21;100789.09;;;23.72;35.09
62617;BME280;62539;51.190;6.808;2023-03-11T09:59:53;100788.38;;;23.85;34.96
62617;BME280;62539;51.190;6.808;2023-03-11T10:02:22;100791.59;;;23.90;35.08
62617;BME280;62539;51.190;6.808;2023-03-11T10:07:35;100800.94;;;24.58;34.20
62617;BME280;62539;51.190;6.808;2023-03-11T10:10:09;100806.44;;;24.86;33.95
62617;BME280;62539;51.190;6.808;2023-03-11T10:13:03;100810.50;;;24.91;33.76
62617;BME280;62539;51.190;6.808;2023-03-11T10:16:25;100813.81;;;24.80;34.04
62617;BME280;62539;51.190;6.808;2023-03-11T10:19:08;100813.63;;;24.84;33.78
62617;BME280;62539;51.190;6.808;2023-03-11T10:21:49;100815.03;;;24.75;34.04
62617;BME280;62539;51.190;6.808;2023-03-11T10:27:22;100826.41;;;24.46;34.63
62617;BME280;62539;51.190;6.808;2023-03-11T10:30:46;100820.94;;;24.33;34.78
62617;BME280;62539;51.190;6.808;2023-03-11T10:33:12;100821.00;;;24.17;35.00
62617;BME280;62539;51.190;6.808;2023-03-11T10:35:49;100825.78;;;24.11;35.17
62617;BME280;62539;51.190;6.808;2023-03-11T10:38:27;100829.69;;;24.35;34.85
62617;BME280;62539;51.190;6.808;2023-03-11T10:40:59;100831.91;;;24.27;35.37
62617;BME280;62539;51.190;6.808;2023-03-11T10:43:34;100832.56;;;24.16;35.44
62617;BME280;62539;51.190;6.808;2023-03-11T10:46:13;100825.38;;;24.02;35.57
62617;BME280;62539;51.190;6.808;2023-03-11T10:48:47;100826.75;;;23.93;35.57
62617;BME280;62539;51.190;6.808;2023-03-11T10:51:21;100837.41;;;23.92;36.36
62617;BME280;62539;51.190;6.808;2023-03-11T10:53:56;100819.91;;;23.89;36.25
62617;BME280;62539;51.190;6.808;2023-03-11T10:56:57;100828.50;;;23.93;37.11
62617;BME280;62539;51.190;6.808;2023-03-11T10:59:31;100819.13;;;24.03;37.13
62617;BME280;62539;51.190;6.808;2023-03-11T11:02:22;100815.28;;;24.09;36.93
62617;BME280;62539;51.190;6.808;2023-03-11T11:07:50;100812.91;;;24.04;36.73
62617;BME280;62539;51.190;6.808;2023-03-11T11:10:27;100819.44;;;23.97;37.15
62617;BME280;62539;51.190;6.808;2023-03-11T11:12:57;100823.56;;;23.87;37.28
62617;BME280;62539;51.190;6.808;2023-03-11T11:15:33;100822.41;;;23.76;37.40
62617;BME280;62539;51.190;6.808;2023-03-11T11:18:13;100824.63;;;23.68;37.68
62617;BME280;62539;51.190;6.808;2023-03-11T11:21:06;100814.53;;;23.59;37.92
62617;BME280;62539;51.190;6.808;2023-03-11T11:23:39;100814.72;;;23.56;37.51
62617;BME280;62539;51.190;6.808;2023-03-11T11:26:17;100818.31;;;23.55;37.59
62617;BME280;62539;51.190;6.808;2023-03-11T11:28:45;100823.44;;;23.58;37.81
62617;BME280;62539;51.190;6.808;2023-03-11T11:31:24;100829.06;;;23.52;30.43
62617;BME280;62539;51.190;6.808;2023-03-11T11:33:54;100832.78;;;23.31;28.85
62617;BME280;62539;51.190;6.808;2023-03-11T11:36:24;100823.56;;;23.05;26.81
62617;BME280;62539;51.190;6.808;2023-03-11T11:38:54;100836.50;;;22.76;26.35
62617;BME280;62539;51.190;6.808;2023-03-11T11:41:22;100837.91;;;22.48;25.80
62617;BME280;62539;51.190;6.808;2023-03-11T11:46:30;100819.00;;;22.01;24.73
62617;BME280;62539;51.190;6.808;2023-03-11T11:49:10;100816.31;;;21.84;24.28
62617;BME280;62539;51.190;6.808;2023-03-11T11:51:58;100813.63;;;21.66;24.25
62617;BME280;62539;51.190;6.808;2023-03-11T11:54:38;100811.59;;;21.52;24.47
62617;BME280;62539;51.190;6.808;2023-03-11T11:57:14;100810.06;;;21.67;24.29
62617;BME280;62539;51.190;6.808;2023-03-11T11:59:42;100811.63;;;21.71;24.17
62617;BME280;62539;51.190;6.808;2023-03-11T12:02:22;100816.13;;;21.69;25.86
62617;BME280;62539;51.190;6.808;2023-03-11T12:05:09;100816.78;;;21.75;24.52
62617;BME280;62539;51.190;6.808;2023-03-11T12:10:44;100830.28;;;21.48;24.33
62617;BME280;62539;51.190;6.808;2023-03-11T12:31:03;100835.56;;;22.95;28.67
62617;BME280;62539;51.190;6.808;2023-03-11T12:33:37;100834.00;;;22.90;29.08
62617;BME280;62539;51.190;6.808;2023-03-11T12:36:05;100826.47;;;22.83;29.29
62617;BME280;62539;51.190;6.808;2023-03-11T12:38:37;100833.88;;;22.76;30.04
62617;BME280;62539;51.190;6.808;2023-03-11T12:41:25;100832.78;;;22.63;30.31
62617;BME280;62539;51.190;6.808;2023-03-11T12:46:16;100825.31;;;22.53;30.89
62617;BME280;62539;51.190;6.808;2023-03-11T12:53:55;100830.75;;;22.68;31.28
62617;BME280;62539;51.190;6.808;2023-03-11T12:56:39;100828.25;;;22.82;31.35
62617;BME280;62539;51.190;6.808;2023-03-11T13:05:25;100823.31;;;23.10;31.93
62617;BME280;62539;51.190;6.808;2023-03-11T13:07:59;100823.72;;;23.02;31.88
62617;BME280;62539;51.190;6.808;2023-03-11T13:10:39;100817.13;;;22.93;32.44
62617;BME280;62539;51.190;6.808;2023-03-11T13:15:52;100811.59;;;22.98;32.33
62617;BME280;62539;51.190;6.808;2023-03-11T13:18:26;100816.69;;;23.18;32.28
62617;BME280;62539;51.190;6.808;2023-03-11T13:20:58;100815.56;;;23.56;32.40
62617;BME280;62539;51.190;6.808;2023-03-11T13:41:12;100813.91;;;25.51;30.50
62617;BME280;62539;51.190;6.808;2023-03-11T13:43:44;100810.09;;;25.56;30.43
62617;BME280;62539;51.190;6.808;2023-03-11T13:46:25;100815.38;;;25.70;30.59
62617;BME280;62539;51.190;6.808;2023-03-11T13:49:07;100800.50;;;25.95;30.37
62617;BME280;62539;51.190;6.808;2023-03-11T13:51:44;100810.28;;;26.22;29.86
62617;BME280;62539;51.190;6.808;2023-03-11T13:56:57;100815.13;;;26.42;29.65
62617;BME280;62539;51.190;6.808;2023-03-11T14:04:31;100813.41;;;26.29;29.95
62617;BME280;62539;51.190;6.808;2023-03-11T14:06:58;100819.78;;;26.26;30.26
62617;BME280;62539;51.190;6.808;2023-03-11T14:09:35;100821.59;;;26.25;30.38
62617;BME280;62539;51.190;6.808;2023-03-11T14:12:05;100826.38;;;26.20;30.42
62617;BME280;62539;51.190;6.808;2023-03-11T14:17:19;100829.97;;;25.77;30.81
62617;BME280;62539;51.190;6.808;2023-03-11T14:22:44;100828.75;;;25.83;30.85
62617;BME280;62539;51.190;6.808;2023-03-11T14:25:26;100824.06;;;25.87;31.17
62617;BME280;62539;51.190;6.808;2023-03-11T14:28:00;100819.50;;;25.89;31.32
62617;BME280;62539;51.190;6.808;2023-03-11T14:30:30;100825.97;;;25.85;31.05
62617;BME280;62539;51.190;6.808;2023-03-11T14:33:04;100831.84;;;25.62;31.30
62617;BME280;62539;51.190;6.808;2023-03-11T14:35:55;100835.34;;;25.34;31.96
62617;BME280;62539;51.190;6.808;2023-03-11T14:38:29;100844.16;;;25.05;32.61